Time;durP1;ratioP1;P1;durP2;ratioP2;P2;SDS_P1;SDS_P2;PMS_P1;PMS_P2;Temp;Humidity;BMP_temperature;BMP_pressure;BME280_temperature;BME280_humidity;BME280_pressure;Samples;Min_cycle;Max_cycle;Signal;HPM_P1;HPM_P2
2023/08/06 00:01:37;;;;;;;5.72;2.60;;;16.10;98.20;;;;;;9969412;29;20222;-76
2023/08/06 00:06:58;;;;;;;6.72;2.55;;;16.00;89.90;;;;;;9970564;29;20226;-76
2023/08/06 00:12:19;;;;;;;2.70;2.20;;;15.90;99.90;;;;;;10006737;29;20230;-76
2023/08/06 00:17:40;;;;;;;3.42;2.00;;;15.80;99.90;;;;;;10006195;29;20254;-77
2023/08/06 00:23:02;;;;;;;2.97;1.83;;;15.80;77.50;;;;;;10001077;29;20216;-77
2023/08/06 00:28:40;;;;;;;2.13;1.85;;;15.80;30.00;;;;;;10004365;29;20478;-76
2023/08/06 00:34:01;;;;;;;3.13;1.50;;;15.70;1.00;;;;;;9967553;29;20242;-76
2023/08/06 00:39:22;;;;;;;3.25;1.90;;;15.70;21.90;;;;;;9966825;29;20203;-76
2023/08/06 00:44:43;;;;;;;1.42;1.33;;;15.70;22.70;;;;;;9967662;29;20286;-77
2023/08/06 00:50:06;;;;;;;4.03;1.63;;;15.60;3.70;;;;;;9966845;29;20452;-76
2023/08/06 00:55:28;;;;;;;3.10;1.70;;;15.60;1.00;;;;;;9963202;29;20560;-76
2023/08/06 01:00:49;;;;;;;3.63;1.60;;;15.60;1.00;;;;;;9967310;29;20199;-75
2023/08/06 01:06:10;;;;;;;2.17;1.50;;;15.50;1.00;;;;;;9965277;29;20198;-76
2023/08/06 01:11:49;;;;;;;2.42;1.45;;;15.60;1.00;;;;;;9999662;29;20309;-76
2023/08/06 01:17:13;;;;;;;1.67;1.58;;;15.50;1.00;;;;;;9996554;29;20195;-75
2023/08/06 01:22:34;;;;;;;1.85;1.45;;;15.50;1.00;;;;;;9963023;29;20488;-75
2023/08/06 01:28:06;;;;;;;2.72;1.58;;;15.50;1.00;;;;;;9989410;29;20438;-76
2023/08/06 01:33:30;;;;;;;4.90;1.25;;;15.40;1.00;;;;;;9963984;29;20250;-76
2023/08/06 01:38:54;;;;;;;2.88;1.52;;;15.40;1.00;;;;;;9965223;29;20243;-75
2023/08/06 01:44:16;;;;;;;2.38;1.30;;;15.40;12.90;;;;;;9961812;29;20222;-76
2023/08/06 01:49:37;;;;;;;6.07;1.70;;;15.40;42.90;;;;;;9970336;29;20211;-76
2023/08/06 01:54:58;;;;;;;1.63;1.42;;;15.40;53.20;;;;;;9964569;29;20255;-76
2023/08/06 02:00:19;;;;;;;2.22;1.73;;;15.40;83.50;;;;;;9976441;29;20290;-76
2023/08/06 02:05:41;;;;;;;2.40;1.50;;;15.30;99.90;;;;;;9949458;29;20285;-75
2023/08/06 02:11:02;;;;;;;2.83;1.60;;;15.30;99.90;;;;;;9964660;29;20213;-75
2023/08/06 02:16:24;;;;;;;2.45;1.75;;;15.30;99.90;;;;;;9987821;29;20210;-76
2023/08/06 02:21:45;;;;;;;2.88;1.88;;;15.30;99.90;;;;;;9970037;29;20281;-76
2023/08/06 02:27:06;;;;;;;2.60;1.70;;;15.30;99.90;;;;;;9951196;29;20209;-75
2023/08/06 02:32:30;;;;;;;3.60;1.75;;;15.40;99.90;;;;;;9963138;29;20238;-77
2023/08/06 02:37:53;;;;;;;2.70;1.73;;;15.40;99.90;;;;;;9964005;29;20312;-76
2023/08/06 02:43:15;;;;;;;1.75;1.50;;;15.40;99.90;;;;;;9949478;29;20265;-76
2023/08/06 02:48:36;;;;;;;1.40;1.30;;;15.30;99.90;;;;;;9963571;29;20206;-76
2023/08/06 02:53:58;;;;;;;2.13;1.50;;;15.40;99.90;;;;;;9963613;29;20418;-77
2023/08/06 02:59:19;;;;;;;2.97;1.50;;;15.30;99.90;;;;;;9965600;29;20232;-76
2023/08/06 03:05:04;;;;;;;3.05;1.42;;;15.40;99.90;;;;;;9957626;29;20208;-76
2023/08/06 03:10:29;;;;;;;0.80;0.73;;;15.40;99.90;;;;;;9970776;29;20204;-76
2023/08/06 03:15:54;;;;;;;1.10;1.00;;;15.30;99.90;;;;;;9971288;29;20231;-76
2023/08/06 03:21:15;;;;;;;0.77;0.77;;;15.30;99.90;;;;;;9969998;29;20453;-76
2023/08/06 03:26:36;;;;;;;1.27;0.90;;;15.30;99.90;;;;;;9969870;29;20524;-76
2023/08/06 03:31:58;;;;;;;1.17;0.70;;;15.20;99.90;;;;;;9983537;29;20235;-76
2023/08/06 03:37:19;;;;;;;0.90;0.82;;;15.20;99.90;;;;;;9970248;29;20293;-76
2023/08/06 03:42:40;;;;;;;1.10;1.00;;;15.20;99.90;;;;;;9956194;29;20213;-76
2023/08/06 03:48:02;;;;;;;0.93;0.93;;;15.10;99.90;;;;;;9942786;29;20213;-76
2023/08/06 03:53:23;;;;;;;1.80;0.93;;;15.20;99.90;;;;;;9944182;29;20228;-76
2023/08/06 03:58:44;;;;;;;1.30;1.20;;;15.20;99.90;;;;;;9944062;29;20209;-76
2023/08/06 04:04:06;;;;;;;1.83;1.40;;;15.30;99.90;;;;;;9979270;29;20567;-76
2023/08/06 04:09:29;;;;;;;2.78;1.63;;;15.30;99.90;;;;;;9968358;29;20202;-75
2023/08/06 04:14:54;;;;;;;2.20;1.73;;;15.40;99.90;;;;;;9972000;29;20478;-76
2023/08/06 04:20:15;;;;;;;3.20;1.80;;;15.30;99.90;;;;;;10005305;29;20248;-75
2023/08/06 04:25:37;;;;;;;2.85;1.65;;;15.40;99.90;;;;;;10005233;29;20493;-75
2023/08/06 04:30:59;;;;;;;2.67;1.70;;;15.40;99.90;;;;;;9997442;29;20202;-76
2023/08/06 04:36:22;;;;;;;3.42;2.22;;;15.40;99.90;;;;;;9965505;29;20262;-76
2023/08/06 04:41:44;;;;;;;1.90;1.80;;;15.40;99.90;;;;;;9967916;29;20487;-76
2023/08/06 04:47:18;;;;;;;3.25;2.10;;;15.50;99.90;;;;;;9966021;29;20313;-76
2023/08/06 04:52:39;;;;;;;3.75;2.20;;;15.50;99.90;;;;;;9928832;29;20321;-75
2023/08/06 04:58:00;;;;;;;3.67;1.88;;;15.50;99.90;;;;;;9928958;29;20394;-75
2023/08/06 05:03:22;;;;;;;3.22;2.15;;;15.50;99.90;;;;;;9938161;29;20247;-76
2023/08/06 05:08:43;;;;;;;4.72;2.08;;;15.60;99.90;;;;;;9967015;29;20197;-76
2023/08/06 05:14:04;;;;;;;2.10;1.90;;;15.60;99.90;;;;;;9965696;29;20288;-76
2023/08/06 05:19:25;;;;;;;2.72;2.15;;;15.60;99.90;;;;;;9985983;29;20205;-76
2023/08/06 05:24:46;;;;;;;3.03;2.50;;;15.60;99.90;;;;;;10003555;29;20206;-75
2023/08/06 05:30:09;;;;;;;2.97;2.30;;;15.70;99.90;;;;;;10003295;29;20212;-76
2023/08/06 05:35:30;;;;;;;3.65;3.30;;;15.70;99.90;;;;;;9964290;29;20282;-76
2023/08/06 05:40:51;;;;;;;3.88;2.80;;;15.80;99.90;;;;;;9966203;29;20231;-77
2023/08/06 05:46:12;;;;;;;5.30;3.22;;;15.80;99.90;;;;;;9965783;29;20396;-76
2023/08/06 05:51:33;;;;;;;4.55;2.53;;;15.80;99.90;;;;;;9936324;29;20217;-76
2023/08/06 05:56:54;;;;;;;5.10;3.17;;;15.90;99.90;;;;;;9928536;29;20207;-75
2023/08/06 06:02:16;;;;;;;3.15;2.72;;;16.00;99.90;;;;;;9935430;29;20210;-77
2023/08/06 06:07:37;;;;;;;4.35;3.13;;;16.00;99.90;;;;;;9965473;29;20279;-76
2023/08/06 06:12:58;;;;;;;3.35;2.78;;;16.10;99.90;;;;;;9965363;29;20252;-76
2023/08/06 06:18:19;;;;;;;3.25;2.63;;;16.30;99.90;;;;;;9969259;29;20237;-76
2023/08/06 06:23:40;;;;;;;2.95;2.65;;;16.40;99.90;;;;;;9973151;29;20205;-75
2023/08/06 06:29:01;;;;;;;3.08;2.75;;;16.50;99.90;;;;;;9971836;29;20199;-76
2023/08/06 06:34:22;;;;;;;3.42;2.45;;;16.60;99.90;;;;;;9965980;29;20329;-76
2023/08/06 06:39:44;;;;;;;2.00;1.80;;;16.60;99.90;;;;;;9977222;29;20385;-77
2023/08/06 06:45:06;;;;;;;2.13;1.90;;;16.70;99.90;;;;;;9972029;29;20493;-76
2023/08/06 06:50:27;;;;;;;1.50;1.40;;;16.80;99.90;;;;;;9971235;29;20212;-76
2023/08/06 06:55:49;;;;;;;1.75;1.42;;;16.80;99.90;;;;;;9985710;29;20256;-75
2023/08/06 07:01:11;;;;;;;3.33;1.77;;;16.90;99.90;;;;;;9969248;29;20510;-75
2023/08/06 07:06:32;;;;;;;1.73;1.60;;;17.00;99.90;;;;;;9970478;29;20385;-76
2023/08/06 07:11:54;;;;;;;1.80;1.60;;;17.20;99.90;;;;;;9971361;29;20276;-76
2023/08/06 07:17:15;;;;;;;1.75;1.10;;;17.40;99.90;;;;;;9983570;29;20225;-75
2023/08/06 07:22:37;;;;;;;1.15;1.05;;;17.50;99.90;;;;;;10007629;29;20374;-76
2023/08/06 07:28:02;;;;;;;1.20;1.10;;;17.60;99.90;;;;;;10008075;29;20382;-76
2023/08/06 07:33:23;;;;;;;0.90;0.90;;;17.70;99.90;;;;;;9981112;29;20238;-76
2023/08/06 07:38:44;;;;;;;2.08;0.80;;;17.70;99.90;;;;;;9980433;29;20254;-76
2023/08/06 07:44:05;;;;;;;2.35;1.00;;;17.80;99.90;;;;;;9969054;29;20494;-77
2023/08/06 07:49:27;;;;;;;1.63;1.15;;;17.80;99.90;;;;;;9969119;29;20210;-75
2023/08/06 07:54:48;;;;;;;1.67;1.02;;;17.90;99.90;;;;;;9968484;29;20306;-76
2023/08/06 08:00:09;;;;;;;1.05;0.95;;;17.90;99.90;;;;;;9969411;29;20325;-76
2023/08/06 08:05:34;;;;;;;1.33;1.17;;;17.90;99.90;;;;;;9968490;29;20203;-76
2023/08/06 08:10:56;;;;;;;3.03;1.27;;;18.10;99.90;;;;;;9965715;29;20213;-76
2023/08/06 08:16:16;;;;;;;2.08;1.80;;;18.30;99.90;;;;;;10007137;29;20516;-76
2023/08/06 08:21:37;;;;;;;2.67;1.98;;;18.50;99.90;;;;;;10006293;29;20275;-76
2023/08/06 08:26:58;;;;;;;4.78;2.78;;;18.50;99.90;;;;;;10000382;29;20226;-76
2023/08/06 08:32:19;;;;;;;1.98;1.60;;;18.50;99.90;;;;;;9987143;29;20228;-76
2023/08/06 08:37:40;;;;;;;2.22;1.90;;;18.40;99.90;;;;;;9979776;29;20323;-76
2023/08/06 08:43:02;;;;;;;2.90;2.20;;;18.40;99.90;;;;;;9967940;29;20521;-76
2023/08/06 08:48:23;;;;;;;3.65;2.80;;;18.30;99.90;;;;;;9965771;29;20223;-76
2023/08/06 08:53:47;;;;;;;3.03;2.05;;;18.40;99.90;;;;;;9967476;29;20273;-76
2023/08/06 08:59:09;;;;;;;3.20;2.90;;;18.40;99.90;;;;;;9964780;29;20781;-76
2023/08/06 09:04:32;;;;;;;3.03;2.60;;;18.50;99.90;;;;;;9966437;29;20218;-76
2023/08/06 09:09:54;;;;;;;4.68;3.10;;;18.40;99.90;;;;;;9965903;29;20446;-75
2023/08/06 09:15:15;;;;;;;3.47;2.88;;;18.50;99.90;;;;;;9977640;29;20262;-76
2023/08/06 09:20:38;;;;;;;3.53;3.03;;;18.40;99.90;;;;;;9985491;29;20200;-76
2023/08/06 09:25:59;;;;;;;4.40;3.67;;;18.50;99.90;;;;;;9976649;29;20275;-76
2023/08/06 09:31:21;;;;;;;5.82;4.50;;;18.50;99.90;;;;;;9993020;29;20257;-76
2023/08/06 09:36:43;;;;;;;5.40;3.65;;;18.60;99.90;;;;;;9966087;29;20243;-76
2023/08/06 09:42:05;;;;;;;4.80;3.80;;;18.60;99.90;;;;;;9952240;29;20491;-75
2023/08/06 09:47:25;;;;;;;4.47;3.30;;;18.60;99.90;;;;;;9958527;29;20235;-75
2023/08/06 09:52:50;;;;;;;3.28;2.70;;;18.60;99.90;;;;;;9964819;29;20224;-75
2023/08/06 09:58:14;;;;;;;3.90;3.13;;;18.70;99.90;;;;;;9964766;29;20201;-75
2023/08/06 10:03:36;;;;;;;2.47;2.28;;;18.80;99.90;;;;;;9928230;29;20197;-76
2023/08/06 10:08:58;;;;;;;2.78;2.50;;;18.90;99.90;;;;;;9927633;29;20208;-76
2023/08/06 10:14:22;;;;;;;1.95;1.80;;;19.00;99.90;;;;;;9946380;29;20348;-77
2023/08/06 10:19:44;;;;;;;2.25;2.05;;;19.00;99.90;;;;;;9998363;29;20192;-76
2023/08/06 10:25:05;;;;;;;2.40;2.20;;;19.10;99.90;;;;;;9954995;29;20203;-76
2023/08/06 10:30:31;;;;;;;3.40;3.05;;;19.10;99.90;;;;;;9997108;29;20207;-76
2023/08/06 10:36:01;;;;;;;4.68;4.03;;;19.20;99.90;;;;;;9959821;29;20244;-77
2023/08/06 10:41:28;;;;;;;10.27;8.15;;;19.20;99.90;;;;;;9964642;29;20379;-76
2023/08/06 10:46:50;;;;;;;19.48;11.75;;;19.20;99.90;;;;;;9963619;29;20404;-77
2023/08/06 10:52:12;;;;;;;16.88;10.55;;;19.20;99.90;;;;;;9950867;29;20205;-76
2023/08/06 10:57:33;;;;;;;13.27;8.88;;;19.30;99.90;;;;;;9962401;29;20221;-76
2023/08/06 11:02:55;;;;;;;15.15;9.70;;;19.30;99.90;;;;;;9964515;29;20246;-76
2023/08/06 11:08:29;;;;;;;9.65;7.47;;;19.30;99.90;;;;;;9963419;29;20204;-76
2023/08/06 11:13:51;;;;;;;7.53;6.38;;;19.30;99.90;;;;;;9974448;29;20280;-77
2023/08/06 11:19:14;;;;;;;6.53;5.82;;;19.30;99.90;;;;;;10003648;29;20522;-78
2023/08/06 11:24:37;;;;;;;5.30;4.80;;;19.30;99.90;;;;;;10007435;29;20223;-77
2023/08/06 11:29:59;;;;;;;6.40;5.78;;;19.30;99.90;;;;;;9990678;29;20529;-76
2023/08/06 11:35:20;;;;;;;9.30;7.55;;;19.30;99.90;;;;;;9983229;29;20243;-75
2023/08/06 11:40:41;;;;;;;9.02;6.63;;;19.40;99.90;;;;;;9962576;29;20479;-76
2023/08/06 11:46:02;;;;;;;5.97;5.38;;;19.40;99.90;;;;;;9995958;29;20515;-76
2023/08/06 11:51:27;;;;;;;9.10;7.05;;;19.60;99.90;;;;;;9970195;29;20357;-75
2023/08/06 11:56:48;;;;;;;10.48;8.70;;;19.80;99.90;;;;;;9953806;29;20259;-75
2023/08/06 12:02:10;;;;;;;7.57;6.43;;;20.10;99.90;;;;;;9991899;29;20203;-76
2023/08/06 12:07:33;;;;;;;7.90;7.13;;;20.20;99.90;;;;;;10006843;29;20207;-76
2023/08/06 12:12:54;;;;;;;8.95;8.05;;;20.10;99.90;;;;;;9983822;29;20239;-76
2023/08/06 12:18:15;;;;;;;9.13;7.95;;;20.10;99.90;;;;;;10018893;29;20192;-77
2023/08/06 12:23:37;;;;;;;17.58;10.05;;;20.30;99.90;;;;;;10000409;29;20218;-76
2023/08/06 12:28:58;;;;;;;13.57;9.88;;;20.50;99.90;;;;;;9980005;29;20283;-80
2023/08/06 12:34:19;;;;;;;19.10;10.95;;;20.70;99.90;;;;;;9976559;29;20252;-78
2023/08/06 12:39:41;;;;;;;13.35;10.68;;;20.80;99.90;;;;;;9967933;29;20208;-75
2023/08/06 12:45:02;;;;;;;17.92;12.90;;;20.70;99.90;;;;;;9954381;29;20213;-76
2023/08/06 12:50:24;;;;;;;16.50;12.40;;;20.60;99.90;;;;;;9967596;29;20249;-74
2023/08/06 12:55:45;;;;;;;13.18;11.77;;;20.60;99.90;;;;;;9965941;29;20266;-74
2023/08/06 13:01:06;;;;;;;14.07;10.95;;;20.50;99.90;;;;;;9966167;29;20499;-78
2023/08/06 13:06:27;;;;;;;11.50;10.15;;;20.60;99.90;;;;;;9963829;29;20212;-74
2023/08/06 13:11:50;;;;;;;18.65;11.48;;;20.80;99.90;;;;;;9966990;29;20212;-77
2023/08/06 13:17:11;;;;;;;14.35;12.85;;;21.00;99.90;;;;;;9966066;29;20541;-75
2023/08/06 13:22:32;;;;;;;15.20;12.13;;;21.20;99.90;;;;;;9929009;29;20277;-75
2023/08/06 13:27:54;;;;;;;12.98;11.68;;;21.20;99.90;;;;;;9929236;29;20201;-75
2023/08/06 13:33:15;;;;;;;12.82;11.55;;;21.30;99.90;;;;;;9945817;29;20382;-75
2023/08/06 13:38:36;;;;;;;12.63;10.88;;;21.60;99.90;;;;;;9946507;29;20585;-74
2023/08/06 13:43:57;;;;;;;13.25;11.85;;;22.00;99.90;;;;;;9964867;29;20807;-74
2023/08/06 13:49:18;;;;;;;12.38;11.18;;;22.30;99.90;;;;;;9965215;29;20213;-75
2023/08/06 13:54:57;;;;;;;12.27;11.18;;;22.60;99.90;;;;;;9960937;29;20220;-75
2023/08/06 14:00:18;;;;;;;12.02;10.82;;;23.00;99.90;;;;;;9965537;29;20207;-74
2023/08/06 14:05:39;;;;;;;14.98;10.98;;;23.20;99.90;;;;;;9965217;29;20200;-75
2023/08/06 14:11:00;;;;;;;12.25;11.00;;;23.10;99.90;;;;;;9961859;29;20211;-78
2023/08/06 14:16:21;;;;;;;15.40;11.88;;;22.90;99.90;;;;;;9965152;29;20235;-75
2023/08/06 14:21:42;;;;;;;14.20;11.73;;;23.00;99.90;;;;;;9965002;29;20196;-75
2023/08/06 14:27:05;;;;;;;15.32;12.32;;;23.20;99.90;;;;;;9979676;29;20514;-79
2023/08/06 14:32:26;;;;;;;13.13;11.18;;;23.40;99.90;;;;;;9988618;29;20200;-77
2023/08/06 14:37:48;;;;;;;12.05;10.77;;;23.60;99.90;;;;;;9964941;29;20248;-75
2023/08/06 14:43:09;;;;;;;15.45;11.57;;;23.90;99.90;;;;;;9963876;29;20223;-75
2023/08/06 14:48:31;;;;;;;13.55;10.82;;;24.10;99.90;;;;;;9964740;29;20204;-77
2023/08/06 14:53:53;;;;;;;16.38;12.02;;;24.10;99.90;;;;;;9965151;29;20530;-76
2023/08/06 14:59:14;;;;;;;12.15;10.80;;;24.20;99.90;;;;;;9971546;29;20216;-76
2023/08/06 15:04:35;;;;;;;12.80;11.30;;;24.30;99.90;;;;;;9971592;29;20276;-74
2023/08/06 15:09:56;;;;;;;15.55;11.18;;;24.30;99.90;;;;;;9975872;29;20253;-75
2023/08/06 15:15:31;;;;;;;17.10;11.40;;;24.10;99.90;;;;;;10008367;29;20232;-75
2023/08/06 15:20:52;;;;;;;12.77;10.65;;;23.90;99.90;;;;;;10008522;29;20227;-75
2023/08/06 15:26:13;;;;;;;15.82;11.45;;;23.60;99.90;;;;;;10002126;29;20211;-75
2023/08/06 15:31:39;;;;;;;11.75;10.65;;;23.40;99.90;;;;;;9999709;29;20207;-75
2023/08/06 15:37:01;;;;;;;18.77;14.23;;;23.20;99.90;;;;;;9967410;29;20260;-75
2023/08/06 15:42:22;;;;;;;18.33;14.73;;;22.90;99.90;;;;;;9969395;29;20211;-75
2023/08/06 15:47:44;;;;;;;17.65;13.65;;;22.70;99.90;;;;;;9968547;29;20283;-76
2023/08/06 15:53:06;;;;;;;15.43;13.50;;;22.50;99.90;;;;;;9970070;29;20224;-75
2023/08/06 15:58:27;;;;;;;13.50;12.10;;;22.40;99.90;;;;;;9968401;29;20474;-75
2023/08/06 16:03:48;;;;;;;9.18;6.10;;;22.00;99.90;;;;;;9932301;29;20200;-74
2023/08/06 16:09:09;;;;;;;8.80;5.60;;;21.50;99.90;;;;;;9956882;29;20267;-77
2023/08/06 16:14:30;;;;;;;6.70;5.40;;;21.10;99.90;;;;;;9968227;29;20586;-75
2023/08/06 16:19:51;;;;;;;7.15;5.32;;;20.80;99.90;;;;;;9968112;29;20196;-75
2023/08/06 16:25:13;;;;;;;6.20;5.60;;;20.70;99.90;;;;;;9996496;29;20440;-76
2023/08/06 16:30:34;;;;;;;7.85;6.15;;;20.60;99.90;;;;;;9995599;29;20514;-75
2023/08/06 16:35:55;;;;;;;7.30;5.35;;;20.60;99.90;;;;;;9960350;29;20243;-76
2023/08/06 16:41:17;;;;;;;5.88;5.35;;;20.40;99.90;;;;;;9962171;29;20804;-75
2023/08/06 16:46:39;;;;;;;7.55;5.80;;;20.40;99.90;;;;;;9967934;29;20249;-75
2023/08/06 16:52:00;;;;;;;6.28;5.63;;;20.30;99.90;;;;;;9965727;29;20210;-76
2023/08/06 16:57:21;;;;;;;9.57;7.38;;;20.30;99.90;;;;;;9966500;29;20232;-76
2023/08/06 17:02:42;;;;;;;10.27;8.60;;;20.20;99.90;;;;;;9966363;29;20507;-75
2023/08/06 17:08:04;;;;;;;11.60;9.35;;;20.20;99.90;;;;;;9965532;29;20827;-75
2023/08/06 17:13:25;;;;;;;10.82;9.65;;;20.20;99.90;;;;;;9966732;29;20225;-75
2023/08/06 17:18:46;;;;;;;10.95;9.82;;;20.20;99.90;;;;;;9964902;29;20197;-74
2023/08/06 17:24:07;;;;;;;11.40;9.80;;;20.20;99.90;;;;;;9966825;29;20196;-74
2023/08/06 17:29:28;;;;;;;11.75;9.90;;;20.20;99.90;;;;;;9965264;29;20208;-75
2023/08/06 17:34:50;;;;;;;11.13;8.77;;;20.10;99.90;;;;;;9966352;29;20394;-75
2023/08/06 17:40:11;;;;;;;8.90;7.78;;;20.20;99.90;;;;;;9987527;29;20196;-77
2023/08/06 17:45:32;;;;;;;8.90;8.05;;;20.20;99.90;;;;;;9981347;29;20234;-75
2023/08/06 17:50:53;;;;;;;11.25;8.35;;;20.10;99.90;;;;;;9946652;29;20260;-76
2023/08/06 17:56:15;;;;;;;8.50;7.63;;;20.10;99.90;;;;;;9928206;29;20220;-75
2023/08/06 18:01:36;;;;;;;7.80;7.00;;;20.00;99.90;;;;;;9928320;29;20584;-75
2023/08/06 18:06:57;;;;;;;6.35;5.70;;;19.90;99.90;;;;;;9955422;29;20219;-76
2023/08/06 18:12:19;;;;;;;6.25;5.50;;;19.80;99.90;;;;;;9972068;29;20197;-75
2023/08/06 18:17:45;;;;;;;6.57;5.72;;;19.80;99.90;;;;;;9965144;29;20232;-75
2023/08/06 18:23:06;;;;;;;7.80;5.50;;;19.70;99.90;;;;;;9997873;29;20558;-75
2023/08/06 18:28:27;;;;;;;9.32;6.35;;;19.60;99.90;;;;;;10000800;29;20207;-76
2023/08/06 18:33:48;;;;;;;7.05;5.82;;;19.70;99.90;;;;;;9977113;29;20569;-75
2023/08/06 18:39:11;;;;;;;7.97;6.50;;;19.70;99.90;;;;;;9969895;29;20228;-75
2023/08/06 18:44:32;;;;;;;7.22;6.53;;;19.60;99.90;;;;;;9988867;29;20252;-74
2023/08/06 18:49:53;;;;;;;13.65;11.20;;;19.60;99.90;;;;;;9975950;29;20234;-74
2023/08/06 18:55:15;;;;;;;18.70;11.70;;;19.50;99.90;;;;;;9969834;29;20243;-76
2023/08/06 19:00:40;;;;;;;12.55;9.82;;;19.40;99.90;;;;;;9971840;29;20197;-75
2023/08/06 19:06:04;;;;;;;10.85;9.15;;;19.40;99.90;;;;;;9970275;29;20239;-75
2023/08/06 19:11:25;;;;;;;9.10;7.38;;;19.30;99.90;;;;;;9971598;29;20483;-75
2023/08/06 19:16:47;;;;;;;9.63;7.10;;;19.20;99.90;;;;;;9971272;29;20504;-75
2023/08/06 19:22:09;;;;;;;6.70;5.88;;;19.00;99.90;;;;;;9967778;29;20511;-75
2023/08/06 19:27:30;;;;;;;9.90;5.78;;;18.90;99.90;;;;;;9970260;29;20276;-75
2023/08/06 19:32:51;;;;;;;7.35;5.55;;;18.80;99.90;;;;;;9970775;29;20200;-76
2023/08/06 19:38:13;;;;;;;6.47;5.00;;;18.50;99.90;;;;;;9963033;29;20259;-75
2023/08/06 19:43:35;;;;;;;2.72;2.38;;;18.30;99.90;;;;;;9966555;29;20419;-75
2023/08/06 19:48:57;;;;;;;3.13;2.15;;;18.00;99.90;;;;;;9973541;29;20237;-75
2023/08/06 19:54:19;;;;;;;3.33;2.30;;;17.70;99.90;;;;;;9969093;29;20243;-75
2023/08/06 19:59:40;;;;;;;2.38;2.17;;;17.50;99.90;;;;;;9950698;29;20221;-74
2023/08/06 20:05:01;;;;;;;3.20;1.73;;;17.30;99.90;;;;;;9969710;29;20208;-75
2023/08/06 20:10:22;;;;;;;2.63;2.03;;;17.20;99.90;;;;;;9965388;29;20204;-76
2023/08/06 20:15:45;;;;;;;2.83;1.50;;;17.10;99.90;;;;;;9969236;29;20258;-76
2023/08/06 20:21:07;;;;;;;1.48;1.38;;;17.10;99.90;;;;;;9968901;29;20207;-76
2023/08/06 20:26:29;;;;;;;1.83;1.17;;;17.10;99.90;;;;;;9982785;29;20222;-78
2023/08/06 20:31:50;;;;;;;1.75;1.38;;;17.00;99.90;;;;;;9998198;29;20206;-77
2023/08/06 20:37:12;;;;;;;1.27;1.17;;;17.00;99.90;;;;;;9966840;29;20330;-76
2023/08/06 20:42:33;;;;;;;0.88;0.88;;;17.00;99.90;;;;;;9969930;29;20210;-76
2023/08/06 20:47:55;;;;;;;0.68;0.50;;;16.80;99.90;;;;;;9970471;29;20211;-75
2023/08/06 20:53:16;;;;;;;1.33;0.60;;;16.80;99.90;;;;;;9966582;29;20232;-78
2023/08/06 20:58:37;;;;;;;1.58;1.17;;;16.60;99.90;;;;;;9965769;29;20212;-76
2023/08/06 21:03:58;;;;;;;2.28;0.75;;;16.60;99.90;;;;;;9963744;29;20282;-76
2023/08/06 21:09:20;;;;;;;0.50;0.50;;;16.50;99.90;;;;;;9967507;29;20345;-77
2023/08/06 21:14:42;;;;;;;0.57;0.40;;;16.40;99.90;;;;;;9966679;29;20240;-76
2023/08/06 21:20:04;;;;;;;0.90;0.47;;;16.40;99.90;;;;;;10000685;29;20209;-77
2023/08/06 21:25:25;;;;;;;1.50;0.55;;;16.30;99.90;;;;;;10004415;29;20213;-76
2023/08/06 21:30:57;;;;;;;2.15;0.50;;;16.20;99.90;;;;;;9998705;29;20496;-76
2023/08/06 21:36:18;;;;;;;0.75;0.40;;;16.10;99.90;;;;;;9965870;29;20242;-76
2023/08/06 21:41:39;;;;;;;2.00;0.63;;;16.10;99.90;;;;;;9977674;29;20409;-76
2023/08/06 21:47:01;;;;;;;1.95;0.65;;;16.10;99.90;;;;;;9971118;29;20218;-76
2023/08/06 21:52:22;;;;;;;0.45;0.40;;;16.00;99.90;;;;;;9963553;29;20208;-78
2023/08/06 21:57:43;;;;;;;1.98;1.10;;;16.00;99.90;;;;;;9965774;29;20225;-73
2023/08/06 22:03:04;;;;;;;1.38;0.90;;;15.90;99.90;;;;;;9964489;29;20250;-75
2023/08/06 22:08:25;;;;;;;1.55;0.55;;;15.80;99.90;;;;;;9964217;29;20213;-76
2023/08/06 22:13:46;;;;;;;0.50;0.40;;;15.70;99.90;;;;;;9927919;30;20200;-75
2023/08/06 22:19:07;;;;;;;1.23;0.40;;;15.70;99.90;;;;;;9934476;29;20202;-80
2023/08/06 22:24:28;;;;;;;1.00;0.63;;;15.60;99.90;;;;;;9941612;29;20505;-77
2023/08/06 22:29:50;;;;;;;0.40;0.32;;;15.60;99.90;;;;;;9927683;29;20195;-76
2023/08/06 22:35:14;;;;;;;1.85;0.60;;;15.60;99.90;;;;;;9955501;29;20441;-73
2023/08/06 22:40:35;;;;;;;3.53;0.40;;;15.60;99.90;;;;;;9963565;29;20430;-76
2023/08/06 22:45:57;;;;;;;2.47;0.60;;;15.60;99.90;;;;;;9989028;29;20263;-76
2023/08/06 22:51:18;;;;;;;0.95;0.38;;;15.60;99.90;;;;;;9962736;29;20462;-73
2023/08/06 22:56:39;;;;;;;2.25;0.57;;;15.50;99.90;;;;;;9964741;29;20234;-76
2023/08/06 23:02:01;;;;;;;2.55;0.73;;;15.50;99.90;;;;;;9964327;29;20253;-77
2023/08/06 23:07:22;;;;;;;1.20;0.43;;;15.50;99.90;;;;;;9963267;29;20215;-75
2023/08/06 23:12:43;;;;;;;1.40;0.98;;;15.40;99.90;;;;;;9964353;29;20204;-73
2023/08/06 23:18:04;;;;;;;1.50;0.55;;;15.30;99.90;;;;;;9968840;29;20234;-76
2023/08/06 23:23:25;;;;;;;1.35;0.40;;;15.30;99.90;;;;;;10004123;29;20258;-76
2023/08/06 23:28:48;;;;;;;1.67;0.85;;;15.30;99.90;;;;;;10007444;29;20196;-75
2023/08/06 23:34:09;;;;;;;0.68;0.32;;;15.30;99.90;;;;;;9975804;29;20214;-75
2023/08/06 23:39:30;;;;;;;1.88;0.22;;;15.20;99.90;;;;;;9966436;29;20214;-76
2023/08/06 23:44:52;;;;;;;0.93;0.40;;;15.10;99.90;;;;;;9984251;29;20198;-75
2023/08/06 23:50:15;;;;;;;0.38;0.38;;;15.20;99.90;;;;;;9970147;29;20209;-76
2023/08/06 23:55:36;;;;;;;0.85;0.50;;;15.10;99.90;;;;;;9968898;29;20543;-76
